HTAR

Arusha Airport

Arusha, Tanzania
METAR HTAR 221400Z 13005KT 9999 FEW026CB SCT270 23/19 Q1015
Observed Flight Rules
Apr-22 @ 14:00 UTC (8 hours ago) Visual Flight Rules
Wind Visibility Clouds
130° at 5 knots 10,000+ meters
  • Few at 2,600' AGL
  • Scattered at 27,000' AGL
Temperatures Readings
Current 23°C / 73°F
Dewpoint 19°C / 66°F
Humidity 78%
Altimeter 29.97" Hg
Pressure 1015 hPa
Elevation 1387
METAR HTAR 221400Z 13005KT 9999 FEW026CB SCT270 23/19 Q1015
Observed Flight Rules
Apr-22 @ 14:00 UTC
(8 hours ago)
VFR
Wind Visibility
130° at 5 knots 10,000+ meters
Clouds
  • Few at 2,600' AGL
  • Scattered at 27,000' AGL
Temperature Dewpoint
23°C / 73°F 19°C / 66°F
Humidity Altimeter Pressure
78% 29.97" Hg 1015 hPa